Time;durP1;ratioP1;P1;durP2;ratioP2;P2;SDS_P1;SDS_P2;PMS_P1;PMS_P2;Temp;Humidity;BMP_temperature;BMP_pressure;BME280_temperature;BME280_humidity;BME280_pressure;Samples;Min_cycle;Max_cycle;Signal;HPM_P1;HPM_P2
2022/11/20 00:01:06;;;;;;;19.23;14.27;;;11.80;1.00;;;;;;5033938;28;20387;-62
2022/11/20 00:03:32;;;;;;;20.52;13.68;;;11.80;1.00;;;;;;5034951;28;20108;-61
2022/11/20 00:06:02;;;;;;;20.38;13.98;;;11.70;1.00;;;;;;5038820;28;20383;-61
2022/11/20 00:08:28;;;;;;;18.23;12.93;;;11.70;1.00;;;;;;5021321;28;20025;-61
2022/11/20 00:10:53;;;;;;;23.20;15.23;;;11.70;1.00;;;;;;5017141;28;20025;-62
2022/11/20 00:13:19;;;;;;;20.60;13.88;;;11.60;1.00;;;;;;5034837;28;20021;-61
2022/11/20 00:15:45;;;;;;;23.48;14.93;;;11.60;1.00;;;;;;5034944;28;20034;-62
2022/11/20 00:18:10;;;;;;;18.92;13.43;;;11.60;1.00;;;;;;5035030;28;20048;-62
2022/11/20 00:20:36;;;;;;;17.58;13.15;;;11.60;1.00;;;;;;5033500;28;20040;-61
2022/11/20 00:23:01;;;;;;;19.55;13.13;;;11.60;1.00;;;;;;5034376;28;20543;-62
2022/11/20 00:25:27;;;;;;;20.90;14.90;;;11.60;1.00;;;;;;5034772;28;20013;-61
2022/11/20 00:27:52;;;;;;;21.80;14.68;;;11.40;1.00;;;;;;5035134;28;20025;-61
2022/11/20 00:30:18;;;;;;;19.38;14.23;;;11.50;1.00;;;;;;5034631;28;20017;-61
2022/11/20 00:32:44;;;;;;;22.80;15.73;;;11.50;1.00;;;;;;5034498;28;20037;-62
2022/11/20 00:35:09;;;;;;;23.50;15.40;;;11.50;1.00;;;;;;5034590;28;20029;-61
2022/11/20 00:37:35;;;;;;;23.83;16.00;;;11.50;1.00;;;;;;5034666;28;20060;-62
2022/11/20 00:40:01;;;;;;;21.63;15.00;;;11.50;1.00;;;;;;5034734;28;20029;-61
2022/11/20 00:42:26;;;;;;;22.08;15.55;;;11.50;1.00;;;;;;5034014;28;20379;-61
2022/11/20 00:44:52;;;;;;;23.33;15.85;;;11.50;1.00;;;;;;5034628;28;20029;-61
2022/11/20 00:47:18;;;;;;;22.33;15.10;;;11.50;1.00;;;;;;5033268;28;20416;-61
2022/11/20 00:49:43;;;;;;;24.25;15.60;;;11.50;1.00;;;;;;5032633;28;20034;-61
2022/11/20 00:52:09;;;;;;;20.92;15.77;;;11.40;1.00;;;;;;5030084;28;20025;-61
2022/11/20 00:54:34;;;;;;;22.83;15.85;;;11.40;1.00;;;;;;5029323;28;20369;-62
2022/11/20 00:57:00;;;;;;;22.00;15.77;;;11.40;1.00;;;;;;5024316;28;20045;-62
2022/11/20 00:59:26;;;;;;;23.83;16.98;;;11.40;1.00;;;;;;5034118;28;20080;-61
2022/11/20 01:01:51;;;;;;;20.17;15.27;;;11.40;1.00;;;;;;5033831;28;20425;-61
2022/11/20 01:04:17;;;;;;;23.65;15.45;;;11.40;1.00;;;;;;5033116;28;20030;-62
2022/11/20 01:06:42;;;;;;;20.55;14.75;;;11.40;1.00;;;;;;5034065;28;20105;-62
2022/11/20 01:09:12;;;;;;;21.70;15.73;;;11.40;1.00;;;;;;5033852;28;20387;-61
2022/11/20 01:11:40;;;;;;;21.20;15.32;;;11.30;1.00;;;;;;5032419;28;20113;-62
2022/11/20 01:14:09;;;;;;;21.48;15.75;;;11.30;1.00;;;;;;5033434;28;20041;-61
2022/11/20 01:16:37;;;;;;;26.33;17.30;;;11.30;1.00;;;;;;5033949;28;20018;-61
2022/11/20 01:19:06;;;;;;;22.38;15.38;;;11.30;1.00;;;;;;5034207;28;20029;-61
2022/11/20 01:21:34;;;;;;;22.20;16.83;;;11.30;1.00;;;;;;5033751;28;20084;-61
2022/11/20 01:24:00;;;;;;;23.42;16.65;;;11.30;1.00;;;;;;5033203;28;20029;-62
2022/11/20 01:26:31;;;;;;;25.05;17.75;;;11.30;1.00;;;;;;5033155;28;20045;-62
2022/11/20 01:28:58;;;;;;;23.60;17.08;;;11.20;1.00;;;;;;5033457;28;20429;-63
2022/11/20 01:31:27;;;;;;;25.95;17.15;;;11.30;1.00;;;;;;5033488;28;20031;-62
2022/11/20 01:33:55;;;;;;;25.77;17.00;;;11.30;1.00;;;;;;5033111;28;20033;-62
2022/11/20 01:36:23;;;;;;;26.42;17.98;;;11.30;1.00;;;;;;5033054;28;20033;-62
2022/11/20 01:38:51;;;;;;;28.20;19.55;;;11.20;1.00;;;;;;5033220;28;20022;-62
2022/11/20 01:44:04;;;;;;;33.92;23.75;;;11.30;1.00;;;;;;5022451;28;20376;-62
2022/11/20 01:46:32;;;;;;;35.17;24.48;;;11.30;1.00;;;;;;5033567;28;20032;-62
2022/11/20 01:49:24;;;;;;;33.78;23.63;;;11.30;1.00;;;;;;5033221;28;20033;-62
2022/11/20 01:52:28;;;;;;;37.17;24.83;;;11.20;1.00;;;;;;5029069;28;20045;-62
2022/11/20 01:55:00;;;;;;;35.35;23.25;;;11.20;1.00;;;;;;4979238;28;20054;-63
2022/11/20 01:57:28;;;;;;;34.97;23.48;;;11.20;1.00;;;;;;5027443;28;20044;-62
2022/11/20 02:00:05;;;;;;;33.25;22.75;;;11.10;1.00;;;;;;5032836;28;20022;-62
2022/11/20 02:02:32;;;;;;;34.25;23.77;;;11.20;1.00;;;;;;5032616;28;20124;-62
2022/11/20 02:05:04;;;;;;;24.42;18.35;;;11.10;1.00;;;;;;5032500;28;20059;-62
2022/11/20 02:07:30;;;;;;;20.80;15.55;;;11.10;1.00;;;;;;5032145;28;20537;-62
2022/11/20 02:09:56;;;;;;;22.83;15.55;;;11.20;1.00;;;;;;5031536;28;20789;-61
2022/11/20 02:19:22;;;;;;;21.20;15.23;;;11.10;1.00;;;;;;5024807;28;20108;-62
2022/11/20 02:22:21;;;;;;;19.27;13.70;;;11.10;1.00;;;;;;5021052;28;20479;-62
2022/11/20 02:24:49;;;;;;;18.73;12.90;;;11.00;1.00;;;;;;5031327;28;20032;-62
2022/11/20 02:27:16;;;;;;;16.77;12.68;;;11.10;1.00;;;;;;5032869;28;20029;-62
2022/11/20 02:29:46;;;;;;;20.60;13.25;;;11.00;1.00;;;;;;5032112;28;20416;-62
2022/11/20 02:32:38;;;;;;;19.90;13.40;;;11.00;1.00;;;;;;5032018;28;20028;-62
2022/11/20 02:35:19;;;;;;;18.23;14.77;;;11.00;1.00;;;;;;5032390;28;20046;-62
2022/11/20 02:37:47;;;;;;;19.90;14.20;;;11.00;1.00;;;;;;5032367;28;20108;-62
2022/11/20 02:40:13;;;;;;;18.13;13.00;;;11.00;1.00;;;;;;5032653;28;20044;-62
2022/11/20 02:42:38;;;;;;;17.08;13.00;;;11.00;1.00;;;;;;5032458;28;20026;-62
2022/11/20 02:45:05;;;;;;;16.98;13.23;;;11.00;1.00;;;;;;5032330;28;20436;-62
2022/11/20 02:47:31;;;;;;;18.33;13.13;;;11.00;1.00;;;;;;5032662;28;20117;-62
2022/11/20 02:49:57;;;;;;;18.80;12.77;;;11.00;1.00;;;;;;5031286;28;20061;-62
2022/11/20 02:52:23;;;;;;;17.15;13.20;;;11.00;1.00;;;;;;5032424;28;20039;-62
2022/11/20 02:54:49;;;;;;;21.58;13.52;;;11.00;1.00;;;;;;5032276;28;20087;-62
2022/11/20 02:57:14;;;;;;;20.08;13.75;;;11.00;1.00;;;;;;5032273;28;20037;-62
2022/11/20 02:59:40;;;;;;;19.38;14.52;;;11.00;1.00;;;;;;5031845;28;20040;-61
2022/11/20 03:02:06;;;;;;;18.35;13.73;;;10.90;1.00;;;;;;5032259;28;20091;-62
2022/11/20 03:04:31;;;;;;;18.85;13.18;;;11.00;1.00;;;;;;5032345;28;20033;-62
2022/11/20 03:06:57;;;;;;;20.08;14.18;;;11.00;1.00;;;;;;5031860;28;20038;-61
2022/11/20 03:09:23;;;;;;;19.77;14.18;;;10.90;1.00;;;;;;5038475;28;20033;-62
2022/11/20 03:11:48;;;;;;;18.55;13.82;;;10.90;1.00;;;;;;5035053;28;20017;-61
2022/11/20 03:14:14;;;;;;;20.08;14.00;;;10.90;1.00;;;;;;5032333;28;20030;-62
2022/11/20 03:16:40;;;;;;;19.42;14.70;;;10.90;1.00;;;;;;5029930;28;20052;-62
2022/11/20 03:19:06;;;;;;;20.40;14.32;;;10.90;1.00;;;;;;5032443;28;20049;-62
2022/11/20 03:21:33;;;;;;;20.05;14.77;;;10.90;1.00;;;;;;5036066;28;20091;-62
2022/11/20 03:23:59;;;;;;;16.42;12.25;;;10.90;1.00;;;;;;5035604;28;20026;-62
2022/11/20 03:26:25;;;;;;;19.88;12.95;;;10.90;1.00;;;;;;5045051;28;20382;-62
2022/11/20 03:28:54;;;;;;;18.50;13.10;;;10.90;1.00;;;;;;5038184;28;20025;-62
2022/11/20 03:31:22;;;;;;;16.98;13.02;;;10.80;1.00;;;;;;5036000;28;20395;-62
2022/11/20 03:33:48;;;;;;;19.77;13.82;;;10.70;1.00;;;;;;5034348;28;20429;-62
2022/11/20 03:36:15;;;;;;;19.55;13.45;;;10.70;1.00;;;;;;5035613;28;20087;-62
2022/11/20 03:38:41;;;;;;;19.70;13.13;;;10.80;1.00;;;;;;5035837;28;20381;-62
2022/11/20 03:41:09;;;;;;;18.52;13.52;;;10.70;1.00;;;;;;5035198;28;20032;-62
2022/11/20 03:43:35;;;;;;;18.00;13.48;;;10.70;1.00;;;;;;5040669;28;20033;-62
2022/11/20 03:46:02;;;;;;;16.10;12.75;;;10.80;1.00;;;;;;5035404;28;20609;-62
2022/11/20 03:48:28;;;;;;;17.83;13.05;;;10.80;1.00;;;;;;5035100;28;20025;-62
2022/11/20 03:51:07;;;;;;;16.98;13.20;;;10.80;1.00;;;;;;5034978;28;20048;-61
2022/11/20 03:53:33;;;;;;;16.17;12.70;;;10.60;1.00;;;;;;5035157;28;20101;-64
2022/11/20 03:55:59;;;;;;;18.33;12.30;;;10.70;1.00;;;;;;5021687;28;20212;-62
2022/11/20 03:58:25;;;;;;;16.63;13.25;;;10.70;1.00;;;;;;5035523;28;20032;-62
2022/11/20 04:00:50;;;;;;;18.35;12.68;;;10.70;1.00;;;;;;5035409;28;20033;-62
2022/11/20 04:03:16;;;;;;;15.98;12.57;;;10.80;1.00;;;;;;5035275;28;20451;-62
2022/11/20 04:05:41;;;;;;;19.40;14.32;;;10.70;1.00;;;;;;5017253;28;20034;-62
2022/11/20 04:08:07;;;;;;;19.85;14.77;;;10.70;1.00;;;;;;5035121;28;20118;-61
2022/11/20 04:10:33;;;;;;;23.83;17.73;;;10.70;1.00;;;;;;5035529;28;20128;-62
2022/11/20 04:12:59;;;;;;;20.33;16.45;;;10.70;1.00;;;;;;5021888;28;20034;-62
2022/11/20 04:15:24;;;;;;;23.10;15.48;;;10.70;1.00;;;;;;5034646;28;20041;-61
2022/11/20 04:17:50;;;;;;;15.00;11.05;;;10.70;1.00;;;;;;5034980;28;20467;-63
2022/11/20 04:20:15;;;;;;;14.25;10.38;;;10.60;1.00;;;;;;5034450;28;20087;-62
2022/11/20 04:22:41;;;;;;;14.45;10.00;;;10.60;1.00;;;;;;5034266;28;20025;-61
2022/11/20 04:25:07;;;;;;;13.20;10.10;;;10.60;1.00;;;;;;5034849;28;20108;-62
2022/11/20 04:27:32;;;;;;;15.50;10.05;;;10.60;1.00;;;;;;5033486;28;20029;-62
2022/11/20 04:29:58;;;;;;;13.05;9.45;;;10.60;1.00;;;;;;5037289;28;20022;-61
2022/11/20 04:32:24;;;;;;;14.02;9.05;;;10.60;1.00;;;;;;5033412;28;20037;-62
2022/11/20 04:34:49;;;;;;;12.77;10.05;;;10.50;1.00;;;;;;5034488;28;20034;-62
2022/11/20 04:37:15;;;;;;;19.65;13.65;;;10.60;1.00;;;;;;5034766;28;20368;-62
2022/11/20 04:39:40;;;;;;;19.40;13.88;;;10.60;1.00;;;;;;5034328;28;20030;-61
2022/11/20 04:44:51;;;;;;;16.80;13.35;;;10.50;1.00;;;;;;5022565;28;20033;-61
2022/11/20 04:47:17;;;;;;;16.35;12.70;;;10.30;1.00;;;;;;5034387;28;20025;-61
2022/11/20 04:49:43;;;;;;;17.17;13.32;;;10.40;1.00;;;;;;5034801;28;20035;-61
2022/11/20 04:52:08;;;;;;;22.08;13.77;;;10.50;1.00;;;;;;5034461;28;20542;-62
2022/11/20 04:54:34;;;;;;;16.13;12.32;;;10.40;1.00;;;;;;5033703;28;20032;-62
2022/11/20 04:56:59;;;;;;;16.83;12.45;;;10.50;1.00;;;;;;5034182;28;20025;-62
2022/11/20 04:59:25;;;;;;;18.17;12.80;;;10.50;1.00;;;;;;5033841;28;20021;-61
2022/11/20 05:01:50;;;;;;;18.58;13.15;;;10.40;1.00;;;;;;5034209;28;20017;-62
2022/11/20 05:04:16;;;;;;;14.27;11.73;;;10.50;1.00;;;;;;5033172;28;20103;-62
2022/11/20 05:06:42;;;;;;;13.70;11.30;;;10.40;1.00;;;;;;5034230;28;20029;-61
2022/11/20 05:09:07;;;;;;;16.67;12.75;;;10.40;1.00;;;;;;5030339;28;20113;-62
2022/11/20 05:11:33;;;;;;;15.43;12.27;;;10.40;1.00;;;;;;5023254;28;20022;-62
2022/11/20 05:13:59;;;;;;;16.10;11.38;;;10.40;1.00;;;;;;5033534;28;20100;-61
2022/11/20 05:16:25;;;;;;;16.40;11.60;;;10.40;1.00;;;;;;5033665;28;20474;-61
2022/11/20 05:18:52;;;;;;;13.02;10.90;;;10.40;1.00;;;;;;5033678;28;20021;-61
2022/11/20 05:21:18;;;;;;;14.63;11.60;;;10.50;1.00;;;;;;5033546;28;20036;-61
2022/11/20 05:23:45;;;;;;;15.90;11.15;;;10.50;1.00;;;;;;5033606;28;20463;-62
2022/11/20 05:26:21;;;;;;;15.23;11.73;;;10.50;1.00;;;;;;5033636;28;20061;-62
2022/11/20 05:28:47;;;;;;;14.40;11.68;;;10.40;1.00;;;;;;5034072;28;20025;-61
2022/11/20 05:31:15;;;;;;;14.77;11.55;;;10.40;1.00;;;;;;5033534;28;20471;-61
2022/11/20 05:33:42;;;;;;;15.77;11.13;;;10.40;1.00;;;;;;5033495;28;20026;-61
2022/11/20 05:36:09;;;;;;;13.07;10.57;;;10.40;1.00;;;;;;5031910;28;20037;-61
2022/11/20 05:38:34;;;;;;;15.55;10.18;;;10.30;1.00;;;;;;5033271;28;20022;-61
2022/11/20 05:41:09;;;;;;;13.40;9.80;;;10.30;1.00;;;;;;5033179;28;20482;-61
2022/11/20 05:43:36;;;;;;;12.80;9.20;;;10.40;1.00;;;;;;5033529;28;20083;-61
2022/11/20 05:46:03;;;;;;;12.63;8.88;;;10.40;1.00;;;;;;5033072;28;20108;-62
2022/11/20 05:48:29;;;;;;;13.45;9.27;;;10.30;1.00;;;;;;5033016;28;20033;-61
2022/11/20 05:50:56;;;;;;;13.52;9.25;;;10.40;1.00;;;;;;5033256;28;20026;-62
2022/11/20 05:53:21;;;;;;;11.30;8.88;;;10.40;1.00;;;;;;5033046;28;20083;-62
2022/11/20 05:55:58;;;;;;;11.10;9.02;;;10.30;1.00;;;;;;5031932;28;20034;-61
2022/11/20 05:58:24;;;;;;;11.63;8.90;;;10.30;1.00;;;;;;5032635;28;20034;-61
2022/11/20 06:00:50;;;;;;;10.95;8.52;;;10.20;1.00;;;;;;5033324;28;20085;-61
2022/11/20 06:03:15;;;;;;;13.02;9.07;;;10.20;1.00;;;;;;5032706;28;20053;-61
2022/11/20 06:05:58;;;;;;;11.85;8.95;;;10.20;1.00;;;;;;5033149;28;20469;-61
2022/11/20 06:08:23;;;;;;;12.88;8.13;;;10.20;1.00;;;;;;5031055;28;20083;-61
2022/11/20 06:10:49;;;;;;;10.18;7.93;;;10.20;1.00;;;;;;5031607;28;20387;-61
2022/11/20 06:13:14;;;;;;;12.05;8.32;;;10.20;1.00;;;;;;5031185;28;20021;-61
2022/11/20 06:15:40;;;;;;;11.00;7.78;;;10.20;1.00;;;;;;5032766;28;20042;-61
2022/11/20 06:18:06;;;;;;;11.20;9.05;;;10.20;1.00;;;;;;5032858;28;20041;-61
2022/11/20 06:20:31;;;;;;;12.68;9.35;;;10.20;1.00;;;;;;5032995;28;20033;-62
2022/11/20 06:22:57;;;;;;;13.20;9.25;;;10.20;1.00;;;;;;5032324;28;20030;-62
2022/11/20 06:25:22;;;;;;;15.10;9.85;;;10.20;1.00;;;;;;5032042;28;20116;-62
2022/11/20 06:27:48;;;;;;;15.48;9.07;;;10.20;1.00;;;;;;5031977;28;20025;-62
2022/11/20 06:30:14;;;;;;;15.45;9.30;;;10.20;1.00;;;;;;5032754;28;20510;-62
2022/11/20 06:32:39;;;;;;;14.82;9.15;;;10.20;1.00;;;;;;5032819;28;20033;-62
2022/11/20 06:35:05;;;;;;;14.88;9.90;;;10.20;1.00;;;;;;5032458;28;20167;-62
2022/11/20 06:37:31;;;;;;;13.35;9.63;;;10.10;1.00;;;;;;5032481;28;20065;-62
2022/11/20 06:39:56;;;;;;;11.43;9.27;;;10.20;1.00;;;;;;5026901;28;20034;-62
2022/11/20 06:42:22;;;;;;;12.77;9.15;;;10.20;1.00;;;;;;5032107;28;20035;-62
2022/11/20 06:44:48;;;;;;;13.60;9.05;;;10.20;1.00;;;;;;5033957;28;20018;-62
2022/11/20 06:47:13;;;;;;;10.88;8.55;;;10.10;1.00;;;;;;5031786;28;20112;-63
2022/11/20 06:49:39;;;;;;;12.55;8.40;;;10.10;1.00;;;;;;5032823;28;20029;-62
2022/11/20 06:52:04;;;;;;;11.38;8.75;;;10.10;1.00;;;;;;5032509;28;20467;-62
2022/11/20 06:54:30;;;;;;;9.85;8.15;;;10.00;1.00;;;;;;5032792;28;20041;-62
2022/11/20 06:56:59;;;;;;;10.43;8.20;;;10.10;1.00;;;;;;5036861;28;20021;-62
2022/11/20 06:59:24;;;;;;;12.18;9.15;;;10.10;1.00;;;;;;5036878;28;20036;-62
2022/11/20 07:01:50;;;;;;;12.75;9.13;;;10.00;1.00;;;;;;5036309;28;20018;-62
2022/11/20 07:04:15;;;;;;;11.73;8.93;;;10.00;1.00;;;;;;5036352;28;20030;-62
2022/11/20 07:06:41;;;;;;;10.43;8.25;;;10.00;1.00;;;;;;5035801;28;20029;-62
2022/11/20 07:09:06;;;;;;;12.30;9.10;;;10.10;1.00;;;;;;5036431;28;20500;-62
2022/11/20 07:11:32;;;;;;;13.27;8.82;;;10.10;1.00;;;;;;5036147;28;20060;-62
2022/11/20 07:13:58;;;;;;;12.48;8.95;;;10.10;1.00;;;;;;5035967;28;20125;-62
2022/11/20 07:16:23;;;;;;;11.33;9.10;;;10.00;1.00;;;;;;5034984;28;20120;-61
2022/11/20 07:18:49;;;;;;;10.88;7.38;;;10.10;1.00;;;;;;5034861;28;20025;-61
2022/11/20 07:21:14;;;;;;;9.88;7.50;;;10.10;1.00;;;;;;5036211;28;20029;-62
2022/11/20 07:23:40;;;;;;;9.30;7.50;;;10.10;1.00;;;;;;5035685;28;20029;-62
2022/11/20 07:26:08;;;;;;;9.88;7.40;;;10.10;1.00;;;;;;5035838;28;20169;-62
2022/11/20 07:28:34;;;;;;;8.68;7.00;;;10.10;1.00;;;;;;5035934;28;20510;-62
2022/11/20 07:31:00;;;;;;;11.02;7.10;;;10.10;1.00;;;;;;5035847;28;20022;-61
2022/11/20 07:33:25;;;;;;;8.60;7.05;;;10.20;1.00;;;;;;5035541;28;20549;-62
2022/11/20 07:35:51;;;;;;;8.48;7.13;;;10.00;1.00;;;;;;5036056;28;20036;-63
2022/11/20 07:38:17;;;;;;;9.77;7.30;;;10.10;1.00;;;;;;5036227;28;20014;-62
2022/11/20 07:40:42;;;;;;;9.80;7.57;;;10.10;1.00;;;;;;5035796;28;20033;-62
2022/11/20 07:43:08;;;;;;;10.57;7.43;;;10.20;1.00;;;;;;5035685;28;20017;-62
2022/11/20 07:45:34;;;;;;;8.20;7.25;;;10.30;1.00;;;;;;5035660;28;20026;-62
2022/11/20 07:47:59;;;;;;;9.10;6.85;;;10.30;1.00;;;;;;5035758;28;20491;-62
2022/11/20 07:50:25;;;;;;;10.32;7.75;;;10.20;1.00;;;;;;5035127;28;20416;-62
2022/11/20 07:52:50;;;;;;;8.38;7.10;;;10.20;1.00;;;;;;5035469;28;20036;-62
2022/11/20 07:55:16;;;;;;;10.48;7.00;;;10.30;1.00;;;;;;5035366;28;20029;-62
2022/11/20 07:57:42;;;;;;;12.77;7.25;;;10.30;1.00;;;;;;5035604;28;20041;-62
2022/11/20 08:00:10;;;;;;;7.82;6.72;;;10.20;1.00;;;;;;5035186;28;20112;-62
2022/11/20 08:02:39;;;;;;;10.60;6.30;;;10.30;1.00;;;;;;5034800;28;20561;-62
2022/11/20 08:05:05;;;;;;;7.85;6.15;;;10.30;1.00;;;;;;5035348;28;20029;-62
2022/11/20 08:07:42;;;;;;;10.38;6.95;;;10.30;1.00;;;;;;5033294;28;20021;-62
2022/11/20 08:10:10;;;;;;;9.32;6.95;;;10.40;1.00;;;;;;5034936;28;20029;-62
2022/11/20 08:15:20;;;;;;;8.15;6.53;;;10.40;1.00;;;;;;5035054;28;20092;-62
2022/11/20 08:17:45;;;;;;;8.95;6.30;;;10.50;1.00;;;;;;5034536;28;20029;-62
2022/11/20 08:20:11;;;;;;;8.35;6.35;;;10.50;1.00;;;;;;5034818;28;20033;-62
2022/11/20 08:22:37;;;;;;;7.53;6.55;;;10.60;1.00;;;;;;5030352;28;20104;-62
2022/11/20 08:25:03;;;;;;;8.15;5.88;;;10.60;1.00;;;;;;5031432;28;20033;-62
2022/11/20 08:27:28;;;;;;;8.50;6.53;;;10.60;1.00;;;;;;5034317;28;20030;-62
2022/11/20 08:29:54;;;;;;;7.18;5.93;;;10.60;1.00;;;;;;5034749;28;20033;-62
2022/11/20 08:32:19;;;;;;;7.63;6.07;;;10.70;1.00;;;;;;5034597;28;20034;-62
2022/11/20 08:34:46;;;;;;;8.25;5.70;;;10.70;1.00;;;;;;5034003;28;20040;-62
2022/11/20 08:37:11;;;;;;;10.43;6.85;;;10.70;1.00;;;;;;5034219;28;20365;-62
2022/11/20 08:39:37;;;;;;;9.82;7.35;;;10.70;1.00;;;;;;5034209;28;20127;-62
2022/11/20 08:42:07;;;;;;;10.63;7.45;;;10.70;1.00;;;;;;5034347;28;20026;-62
2022/11/20 08:44:33;;;;;;;7.75;5.80;;;10.80;1.00;;;;;;5034143;28;20033;-62
2022/11/20 08:47:00;;;;;;;7.93;5.80;;;10.80;1.00;;;;;;5029250;28;20394;-62
2022/11/20 08:49:25;;;;;;;6.80;6.00;;;10.80;1.00;;;;;;5033207;28;20022;-62
2022/11/20 08:51:54;;;;;;;8.07;6.22;;;10.80;1.00;;;;;;5034203;28;20036;-62
2022/11/20 08:54:21;;;;;;;8.90;7.03;;;10.90;1.00;;;;;;5033922;28;20426;-62
2022/11/20 08:56:47;;;;;;;9.93;7.47;;;10.90;1.00;;;;;;5034131;28;20029;-62
2022/11/20 08:59:13;;;;;;;9.43;7.10;;;10.90;1.00;;;;;;5039505;28;20025;-62
2022/11/20 09:01:39;;;;;;;8.10;7.28;;;10.90;1.00;;;;;;5034126;28;20104;-62
2022/11/20 09:04:05;;;;;;;9.98;7.18;;;11.00;1.00;;;;;;5034291;28;20100;-61
2022/11/20 09:06:30;;;;;;;11.55;9.30;;;11.00;1.00;;;;;;5033543;28;20053;-61
2022/11/20 09:08:56;;;;;;;14.07;10.32;;;11.00;1.00;;;;;;5033638;28;20032;-62
2022/11/20 09:11:22;;;;;;;17.27;11.55;;;11.00;1.00;;;;;;5032144;28;20083;-62
2022/11/20 09:13:48;;;;;;;12.38;11.02;;;11.00;1.00;;;;;;5031997;28;20391;-62
2022/11/20 09:16:13;;;;;;;15.20;11.73;;;11.00;1.00;;;;;;5032433;28;20030;-62
2022/11/20 09:18:39;;;;;;;15.70;11.35;;;11.10;1.00;;;;;;5033639;28;20034;-58
2022/11/20 09:21:10;;;;;;;13.77;10.80;;;11.00;1.00;;;;;;5021285;28;20049;-54
2022/11/20 09:23:37;;;;;;;15.32;10.85;;;11.00;1.00;;;;;;5027779;28;20040;-51
2022/11/20 09:26:08;;;;;;;11.60;9.93;;;11.10;1.00;;;;;;5029485;28;20049;-51
2022/11/20 09:28:34;;;;;;;13.63;10.07;;;11.20;1.00;;;;;;5029590;28;20029;-53
2022/11/20 09:30:59;;;;;;;14.50;10.77;;;11.20;1.00;;;;;;5030313;28;20034;-49
2022/11/20 09:33:25;;;;;;;12.00;10.20;;;11.20;1.00;;;;;;5026008;28;20446;-54
2022/11/20 09:35:51;;;;;;;12.60;9.48;;;11.30;1.00;;;;;;5028472;28;20039;-53
2022/11/20 09:38:17;;;;;;;12.32;9.80;;;11.30;1.00;;;;;;5033281;28;20152;-60
2022/11/20 09:41:01;;;;;;;13.80;10.32;;;11.30;1.00;;;;;;5677336;22;20054;-64
2022/11/20 09:43:52;;;;;;;15.50;9.13;;;11.30;1.00;;;;;;5000375;28;20030;-63
2022/11/20 09:46:34;;;;;;;10.85;9.40;;;11.30;1.00;;;;;;4998711;28;20273;-63
2022/11/20 09:49:15;;;;;;;12.18;9.52;;;11.30;1.00;;;;;;5005539;28;20046;-64
2022/11/20 09:51:50;;;;;;;11.55;9.85;;;11.40;1.00;;;;;;5009995;28;20034;-63
2022/11/20 09:54:17;;;;;;;10.70;8.60;;;11.40;1.00;;;;;;4999834;28;20031;-63
2022/11/20 09:57:09;;;;;;;11.73;8.75;;;11.40;1.00;;;;;;5018292;28;20014;-63
2022/11/20 09:59:35;;;;;;;10.65;7.63;;;11.40;1.00;;;;;;4992892;28;20095;-63
2022/11/20 10:02:12;;;;;;;10.80;7.88;;;11.40;1.00;;;;;;5025023;28;20510;-63
2022/11/20 10:05:02;;;;;;;10.40;8.63;;;11.50;1.00;;;;;;5031893;28;20033;-63
2022/11/20 10:07:37;;;;;;;9.35;8.40;;;11.50;1.00;;;;;;5016373;28;20065;-63
2022/11/20 10:10:03;;;;;;;14.63;9.18;;;11.50;1.00;;;;;;5031505;28;20030;-63
2022/11/20 10:13:04;;;;;;;10.05;9.05;;;11.50;1.00;;;;;;5013967;28;20527;-63
2022/11/20 10:15:41;;;;;;;10.80;8.98;;;11.60;1.00;;;;;;5000984;28;20117;-63
2022/11/20 10:18:34;;;;;;;10.45;9.25;;;11.60;1.00;;;;;;5027666;28;20033;-63
2022/11/20 10:21:10;;;;;;;11.60;8.40;;;11.60;1.00;;;;;;5020066;28;20034;-64
2022/11/20 10:23:57;;;;;;;9.45;8.32;;;11.60;1.00;;;;;;5014922;28;20026;-64
2022/11/20 10:27:14;;;;;;;11.85;7.97;;;11.60;1.00;;;;;;5019240;28;20034;-64
2022/11/20 10:29:45;;;;;;;11.25;8.85;;;11.60;1.00;;;;;;4983261;28;20135;-64
2022/11/20 10:32:18;;;;;;;9.20;7.93;;;11.60;1.00;;;;;;5012229;28;20129;-64
2022/11/20 10:34:49;;;;;;;11.13;9.27;;;11.70;1.00;;;;;;5018054;28;20088;-64
2022/11/20 10:37:24;;;;;;;11.50;8.85;;;11.70;1.00;;;;;;5017415;28;20049;-64
2022/11/20 10:40:04;;;;;;;9.45;8.15;;;11.70;1.00;;;;;;5031165;28;20059;-64
2022/11/20 10:42:42;;;;;;;10.50;8.65;;;11.70;1.00;;;;;;5008823;28;20041;-64
2022/11/20 10:45:20;;;;;;;11.27;8.98;;;11.70;1.00;;;;;;5020283;28;20041;-68
2022/11/20 10:47:45;;;;;;;9.60;8.20;;;11.80;1.00;;;;;;5012402;28;20068;-68
2022/11/20 10:50:17;;;;;;;9.82;8.15;;;11.80;1.00;;;;;;5017761;28;20050;-68
2022/11/20 10:53:02;;;;;;;10.52;8.75;;;11.80;1.00;;;;;;5013985;28;20084;-67
2022/11/20 10:55:36;;;;;;;11.82;8.77;;;11.90;1.00;;;;;;5025800;28;20033;-68
2022/11/20 10:58:38;;;;;;;9.98;8.88;;;11.90;1.00;;;;;;5018480;28;20482;-68
2022/11/20 11:01:17;;;;;;;9.00;8.05;;;11.90;1.00;;;;;;5026729;28;20022;-68
2022/11/20 11:03:43;;;;;;;8.52;7.50;;;11.90;1.00;;;;;;5025483;28;20044;-68
2022/11/20 11:06:27;;;;;;;9.45;8.30;;;12.00;1.00;;;;;;5029252;28;20423;-69
2022/11/20 11:08:55;;;;;;;9.63;8.65;;;12.00;1.00;;;;;;5023863;28;20053;-69
2022/11/20 11:11:23;;;;;;;12.05;8.73;;;12.00;1.00;;;;;;5017495;28;20037;-68
2022/11/20 11:13:50;;;;;;;10.63;8.45;;;12.00;1.00;;;;;;5024433;28;20065;-68
2022/11/20 11:16:26;;;;;;;10.60;8.38;;;12.00;1.00;;;;;;5023804;28;20052;-68
2022/11/20 11:19:02;;;;;;;11.02;8.95;;;12.10;1.00;;;;;;5023640;28;20022;-68
2022/11/20 11:21:28;;;;;;;12.93;10.43;;;12.10;1.00;;;;;;5023433;28;20022;-68
2022/11/20 11:23:59;;;;;;;9.93;8.93;;;12.10;1.00;;;;;;5014060;28;20028;-68
2022/11/20 11:26:25;;;;;;;10.77;9.23;;;12.10;1.00;;;;;;5025214;28;20476;-68
2022/11/20 11:29:03;;;;;;;10.55;9.38;;;12.10;1.00;;;;;;5046467;28;20244;-68
2022/11/20 11:31:31;;;;;;;11.82;8.95;;;12.10;1.00;;;;;;5018362;28;20046;-68
2022/11/20 11:34:16;;;;;;;11.43;8.93;;;12.10;1.00;;;;;;5022893;28;20029;-67
2022/11/20 11:36:50;;;;;;;10.52;8.75;;;12.20;1.00;;;;;;5012414;28;20044;-68
2022/11/20 11:39:19;;;;;;;11.02;9.40;;;12.10;1.00;;;;;;5011396;28;20494;-68
2022/11/20 11:41:45;;;;;;;10.93;9.15;;;12.20;1.00;;;;;;5028583;28;20502;-68
2022/11/20 11:47:06;;;;;;;11.63;9.60;;;12.20;1.00;;;;;;5025760;28;20044;-67
2022/11/20 11:49:32;;;;;;;11.25;9.50;;;12.20;1.00;;;;;;5022219;28;20030;-67
2022/11/20 11:52:18;;;;;;;12.30;10.27;;;12.30;1.00;;;;;;5027765;28;20199;-69
2022/11/20 11:54:54;;;;;;;12.60;9.80;;;12.30;1.00;;;;;;5019857;28;20029;-69
2022/11/20 11:57:47;;;;;;;14.00;9.50;;;12.40;1.00;;;;;;5034712;28;20112;-69
2022/11/20 12:00:21;;;;;;;13.10;10.13;;;12.40;1.00;;;;;;5015456;28;20029;-68
2022/11/20 12:02:49;;;;;;;9.88;8.85;;;12.40;1.00;;;;;;5026150;28;20041;-68
2022/11/20 12:05:42;;;;;;;14.02;9.48;;;12.40;1.00;;;;;;5025215;28;20040;-68
2022/11/20 12:08:30;;;;;;;12.32;9.73;;;12.40;1.00;;;;;;5033044;28;20026;-68
2022/11/20 12:11:10;;;;;;;11.35;9.27;;;12.40;1.00;;;;;;5024488;28;20464;-68
2022/11/20 12:13:58;;;;;;;11.35;9.32;;;12.40;1.00;;;;;;5030770;28;20044;-68
2022/11/20 12:16:24;;;;;;;14.52;9.50;;;12.50;1.00;;;;;;5033851;28;20052;-68
2022/11/20 12:18:51;;;;;;;11.60;10.07;;;12.40;1.00;;;;;;5023130;28;20065;-68
2022/11/20 12:21:46;;;;;;;11.60;8.63;;;12.50;1.00;;;;;;5030980;28;20143;-68
2022/11/20 12:24:29;;;;;;;12.48;8.95;;;12.50;1.00;;;;;;5021308;28;20042;-68
2022/11/20 12:27:15;;;;;;;9.40;7.47;;;12.40;1.00;;;;;;5005150;28;20048;-68
2022/11/20 12:30:14;;;;;;;11.10;8.38;;;12.50;1.00;;;;;;5008443;28;20034;-68
2022/11/20 12:32:55;;;;;;;11.45;9.23;;;12.60;1.00;;;;;;5009786;28;20014;-68
2022/11/20 12:35:58;;;;;;;11.05;9.63;;;12.50;1.00;;;;;;5011764;28;20092;-68
2022/11/20 12:38:30;;;;;;;9.70;8.45;;;12.50;1.00;;;;;;5012670;28;20124;-68
2022/11/20 12:41:01;;;;;;;9.88;8.77;;;12.60;1.00;;;;;;5010529;28;20045;-68
2022/11/20 12:46:52;;;;;;;9.52;8.05;;;12.70;1.00;;;;;;5017646;28;20049;-68
2022/11/20 12:49:47;;;;;;;8.95;8.05;;;12.70;1.00;;;;;;5021541;28;20064;-68
2022/11/20 12:52:29;;;;;;;11.13;8.02;;;12.70;1.00;;;;;;5032691;28;20382;-68
2022/11/20 12:55:00;;;;;;;8.60;7.63;;;12.70;1.00;;;;;;5009762;28;20022;-68
2022/11/20 12:57:51;;;;;;;10.13;7.68;;;12.70;1.00;;;;;;5027775;28;20518;-68
2022/11/20 13:00:22;;;;;;;9.32;7.53;;;12.70;1.00;;;;;;5021427;28;20109;-68
2022/11/20 13:03:20;;;;;;;10.18;7.55;;;12.80;1.00;;;;;;5029739;28;20065;-68
2022/11/20 13:06:00;;;;;;;8.48;7.07;;;12.80;1.00;;;;;;5019836;28;20044;-68
2022/11/20 13:08:39;;;;;;;8.13;6.63;;;12.80;1.00;;;;;;5004050;28;20021;-68
2022/11/20 13:11:12;;;;;;;8.43;6.80;;;12.80;1.00;;;;;;5027697;28;20026;-68
2022/11/20 13:13:55;;;;;;;9.80;6.65;;;12.80;1.00;;;;;;5011714;28;20490;-67
2022/11/20 13:16:33;;;;;;;7.72;5.72;;;12.80;1.00;;;;;;5019622;28;20131;-68
2022/11/20 13:19:05;;;;;;;7.63;6.28;;;12.90;1.00;;;;;;5028463;28;20538;-68